Stewart, Nevada
Current Conditions -  °F | °C
As of 8:55 AM on Tuesday 27 Jan 2015 (Local Time) from KCXP Reporting Station
Light Rain Light Rain  
Wind Chill: 43°   Ceiling: 3300
Heat Index: 43°   Visibility: 5mi
Dew Point: 36°   Wind: 0mph
Humidity: 76%   Direction: NA
Pressure: 30.19"   Gusts: NA
Location:  39.1386°N, 119.659°W
Report Text: KCXP 271655Z AUTO 00000KT 5SM -RA SCT026 BKN033 06/02 A3019 RMK AO2
Loading
Personal Weather Stations






























Interactive Weather Map New forecast layout! Learn more

10-Day Weather Forecast

Advertisements
Track Severe Weather on mobile